createdAt,value
2022-11-08T00:00:19.058Z,100805.16
2022-11-08T00:02:46.439Z,100807.81
2022-11-08T00:05:32.303Z,100811.34
2022-11-08T00:08:21.637Z,100814.00
2022-11-08T00:11:07.500Z,100813.13
2022-11-08T00:13:53.458Z,100810.56
2022-11-08T00:16:20.703Z,100806.19
2022-11-08T00:18:47.667Z,100813.28
2022-11-08T00:21:14.602Z,100809.75
2022-11-08T00:23:47.308Z,100806.28
2022-11-08T00:26:14.321Z,100806.31
2022-11-08T00:28:41.387Z,100803.66
2022-11-08T00:31:08.430Z,100805.44
2022-11-08T00:33:35.585Z,100795.81
2022-11-08T00:36:03.550Z,100796.69
2022-11-08T00:38:30.564Z,100802.84
2022-11-08T00:40:57.511Z,100791.44
2022-11-08T00:43:24.488Z,100794.09
2022-11-08T00:45:51.479Z,100790.63
2022-11-08T00:48:18.682Z,100780.09
2022-11-08T00:50:46.022Z,100786.28
2022-11-08T00:53:13.001Z,100792.44
2022-11-08T00:55:39.965Z,100788.94
2022-11-08T00:58:06.989Z,100785.44
2022-11-08T01:00:35.029Z,100785.44
2022-11-08T01:03:20.395Z,100779.31
2022-11-08T01:05:54.234Z,100785.47
2022-11-08T01:08:23.504Z,100774.94
2022-11-08T01:10:52.307Z,100774.97
2022-11-08T01:13:19.720Z,100781.09
2022-11-08T01:15:47.106Z,100775.84
2022-11-08T01:18:17.476Z,100781.09
2022-11-08T01:20:47.599Z,100777.59
2022-11-08T01:23:21.987Z,100775.84
2022-11-08T01:25:49.128Z,100770.56
2022-11-08T01:28:17.350Z,100771.47
2022-11-08T01:30:45.587Z,100769.69
2022-11-08T01:33:14.106Z,100772.31
2022-11-08T01:35:44.260Z,100766.19
2022-11-08T01:38:11.618Z,100756.50
2022-11-08T01:40:47.521Z,100753.88
2022-11-08T01:43:45.618Z,100757.38
2022-11-08T01:46:18.677Z,100744.22
2022-11-08T01:49:11.044Z,100745.97
2022-11-08T01:51:55.491Z,100734.56
2022-11-08T01:54:39.982Z,100739.84
2022-11-08T01:57:13.566Z,100735.44
2022-11-08T01:59:42.735Z,100734.53
2022-11-08T02:02:10.894Z,100722.25
2022-11-08T02:04:40.573Z,100723.13
2022-11-08T02:07:09.421Z,100717.84
2022-11-08T02:09:39.690Z,100710.81
2022-11-08T02:12:08.656Z,100708.19
2022-11-08T02:14:37.463Z,100704.69
2022-11-08T02:17:06.518Z,100704.66
2022-11-08T02:19:47.464Z,100699.38
2022-11-08T02:22:35.322Z,100697.66
2022-11-08T02:25:03.181Z,100689.75
2022-11-08T02:27:30.230Z,100689.75
2022-11-08T02:29:57.296Z,100682.69
2022-11-08T02:32:24.453Z,100682.72
2022-11-08T02:34:58.225Z,100669.56
2022-11-08T02:37:29.239Z,100672.22
2022-11-08T02:39:56.280Z,100660.81
2022-11-08T02:42:23.368Z,100649.41
2022-11-08T02:44:50.445Z,100665.22
2022-11-08T02:47:17.403Z,100657.28
2022-11-08T02:49:44.631Z,100651.19
2022-11-08T02:52:11.984Z,100647.69
2022-11-08T02:54:39.239Z,100649.44
2022-11-08T02:57:06.354Z,100640.69
2022-11-08T02:59:33.349Z,100637.22
2022-11-08T03:02:00.552Z,100626.66
2022-11-08T03:04:27.709Z,100625.78
2022-11-08T03:06:54.772Z,100618.78
2022-11-08T03:09:21.948Z,100613.56
2022-11-08T03:11:48.894Z,100598.63
2022-11-08T03:14:15.958Z,100599.56
2022-11-08T03:16:42.950Z,100598.66
2022-11-08T03:19:12.172Z,100609.22
2022-11-08T03:21:39.261Z,100603.09
2022-11-08T03:24:06.794Z,100596.06
2022-11-08T03:26:33.920Z,100592.59
2022-11-08T03:29:00.919Z,100591.72
2022-11-08T03:31:28.041Z,100599.63
2022-11-08T03:33:55.012Z,100606.63
2022-11-08T03:36:22.367Z,100593.50
2022-11-08T03:38:50.819Z,100587.38
2022-11-08T03:41:17.808Z,100580.34
2022-11-08T03:43:44.844Z,100586.50
2022-11-08T03:46:11.905Z,100578.63
2022-11-08T03:48:38.888Z,100562.84
2022-11-08T03:51:06.132Z,100554.94
2022-11-08T03:53:33.066Z,100556.72
2022-11-08T03:56:01.145Z,100551.44
2022-11-08T03:58:28.634Z,100547.91
2022-11-08T04:00:55.688Z,100552.31
2022-11-08T04:03:24.174Z,100538.31
2022-11-08T04:05:51.121Z,100539.19
2022-11-08T04:08:18.527Z,100538.34
2022-11-08T04:10:45.794Z,100533.06
2022-11-08T04:13:31.597Z,100528.69
2022-11-08T04:15:58.609Z,100512.91
2022-11-08T04:18:44.357Z,100512.94
2022-11-08T04:21:24.446Z,100509.44
2022-11-08T04:23:52.816Z,100500.63
2022-11-08T04:26:21.691Z,100499.78
2022-11-08T04:28:48.735Z,100500.69
2022-11-08T04:31:19.341Z,100492.78
2022-11-08T04:33:46.544Z,100491.03
2022-11-08T04:36:17.053Z,100485.81
2022-11-08T04:38:47.666Z,100478.75
2022-11-08T04:41:16.805Z,100480.53
2022-11-08T04:43:44.582Z,100479.66
2022-11-08T04:46:21.786Z,100486.69
2022-11-08T04:48:54.009Z,100477.94
2022-11-08T04:51:26.827Z,100471.81
2022-11-08T04:53:58.819Z,100469.16
2022-11-08T04:56:28.161Z,100452.50
2022-11-08T04:58:58.719Z,100450.75
2022-11-08T05:01:29.773Z,100451.66
2022-11-08T05:03:58.262Z,100441.13
2022-11-08T05:06:29.420Z,100439.38
2022-11-08T05:09:01.824Z,100432.38
2022-11-08T05:11:30.769Z,100432.38
2022-11-08T05:13:58.222Z,100433.25
2022-11-08T05:16:32.229Z,100425.38
2022-11-08T05:18:59.880Z,100435.03
2022-11-08T05:21:45.782Z,100436.75
2022-11-08T05:24:16.412Z,100433.25
2022-11-08T05:26:47.493Z,100427.16
2022-11-08T05:29:16.393Z,100428.00
2022-11-08T05:31:43.392Z,100426.25
2022-11-08T05:34:10.477Z,100420.09
2022-11-08T05:36:37.877Z,100420.13
2022-11-08T05:39:05.216Z,100416.63
2022-11-08T05:41:32.304Z,100421.91
2022-11-08T05:43:59.459Z,100419.25
2022-11-08T05:46:26.547Z,100416.63
2022-11-08T05:48:54.232Z,100418.41
2022-11-08T05:51:21.360Z,100422.81
2022-11-08T05:53:48.948Z,100419.28
2022-11-08T05:56:16.881Z,100422.78
2022-11-08T05:58:44.604Z,100412.28
2022-11-08T06:01:15.225Z,100421.06
2022-11-08T06:03:42.715Z,100404.41
2022-11-08T06:06:16.924Z,100407.91
2022-11-08T06:08:49.060Z,100407.06
2022-11-08T06:11:22.044Z,100409.69
2022-11-08T06:13:49.623Z,100414.97
2022-11-08T06:16:19.394Z,100419.34
2022-11-08T06:18:47.202Z,100418.47
2022-11-08T06:21:18.167Z,100413.22
2022-11-08T06:23:45.299Z,100411.47
2022-11-08T06:26:13.050Z,100409.75
2022-11-08T06:28:40.139Z,100414.13
2022-11-08T06:31:08.169Z,100407.97
2022-11-08T06:33:36.197Z,100410.59
2022-11-08T06:36:03.394Z,100411.50
2022-11-08T06:38:30.552Z,100408.00
2022-11-08T06:41:01.888Z,100410.63
2022-11-08T06:43:29.256Z,100415.00
2022-11-08T06:46:02.948Z,100417.63
2022-11-08T06:48:35.379Z,100407.13
2022-11-08T06:51:04.214Z,100404.50
2022-11-08T06:53:31.760Z,100403.59
2022-11-08T06:56:02.748Z,100411.47
2022-11-08T06:58:31.028Z,100408.00
2022-11-08T07:00:58.331Z,100423.75
2022-11-08T07:03:26.855Z,100419.34
2022-11-08T07:05:53.947Z,100426.34
2022-11-08T07:08:24.127Z,100427.19
2022-11-08T07:10:51.507Z,100428.06
2022-11-08T07:13:18.885Z,100433.25
2022-11-08T07:15:48.203Z,100428.00
2022-11-08T07:18:17.751Z,100434.09
2022-11-08T07:20:45.161Z,100421.78
2022-11-08T07:23:12.759Z,100424.38
2022-11-08T07:25:39.801Z,100427.84
2022-11-08T07:28:12.788Z,100425.19
2022-11-08T07:30:39.769Z,100426.91
2022-11-08T07:33:06.762Z,100425.97
2022-11-08T07:35:34.652Z,100418.91
2022-11-08T07:38:01.622Z,100427.66
2022-11-08T07:40:28.790Z,100430.22
2022-11-08T07:43:14.744Z,100424.00
2022-11-08T07:45:42.398Z,100419.56
2022-11-08T07:48:13.408Z,100419.47
2022-11-08T07:50:42.445Z,100422.91
2022-11-08T07:53:10.718Z,100414.84
2022-11-08T07:55:39.513Z,100408.53
2022-11-08T07:58:08.522Z,100409.28
2022-11-08T08:00:39.608Z,100404.72
2022-11-08T08:03:10.040Z,100408.06
2022-11-08T08:05:40.690Z,100414.84
2022-11-08T08:08:07.951Z,100407.66
2022-11-08T08:10:36.220Z,100409.22
2022-11-08T08:13:04.274Z,100405.53
2022-11-08T08:15:31.289Z,100402.72
2022-11-08T08:18:02.722Z,100412.22
2022-11-08T08:20:31.261Z,100394.47
2022-11-08T08:22:58.914Z,100418.09
2022-11-08T08:25:28.388Z,100426.72
2022-11-08T08:27:58.145Z,100434.50
2022-11-08T08:30:25.544Z,100432.69
2022-11-08T08:33:14.696Z,100437.00
2022-11-08T08:35:43.070Z,100429.81
2022-11-08T08:38:12.154Z,100435.91
2022-11-08T08:40:39.428Z,100440.22
2022-11-08T08:43:07.085Z,100430.31
2022-11-08T08:45:35.535Z,100428.34
2022-11-08T08:48:03.026Z,100425.59
2022-11-08T08:50:32.892Z,100423.72
2022-11-08T08:53:02.093Z,100424.44
2022-11-08T08:55:29.751Z,100417.22
2022-11-08T08:57:57.258Z,100420.56
2022-11-08T09:03:12.515Z,100418.59
2022-11-08T09:05:46.573Z,100408.75
2022-11-08T09:08:15.170Z,100398.00
2022-11-08T09:10:42.512Z,100397.78
2022-11-08T09:13:09.649Z,100399.19
2022-11-08T09:15:36.808Z,100413.91
2022-11-08T09:18:04.178Z,100417.16
2022-11-08T09:20:31.190Z,100412.66
2022-11-08T09:23:03.138Z,100411.78
2022-11-08T09:25:30.451Z,100405.63
2022-11-08T09:27:57.547Z,100396.81
2022-11-08T09:30:24.633Z,100400.34
2022-11-08T09:33:03.015Z,100391.53
2022-11-08T09:35:31.089Z,100399.47
2022-11-08T09:37:59.085Z,100401.19
2022-11-08T09:40:48.933Z,100395.72
2022-11-08T09:43:38.310Z,100392.06
2022-11-08T09:46:09.610Z,100383.09
2022-11-08T09:48:44.978Z,100388.25
2022-11-08T09:51:23.576Z,100394.13
2022-11-08T09:54:00.996Z,100405.34
2022-11-08T09:56:37.398Z,100402.41
2022-11-08T09:59:34.005Z,100408.38
2022-11-08T10:02:01.379Z,100410.78
2022-11-08T10:04:32.918Z,100422.25
2022-11-08T10:07:46.079Z,100422.25
2022-11-08T10:10:55.357Z,100421.06
2022-11-08T10:13:44.371Z,100410.91
2022-11-08T10:17:07.368Z,100412.28
2022-11-08T10:19:55.068Z,100422.75
2022-11-08T10:22:32.236Z,100426.22
2022-11-08T10:25:26.268Z,100427.78
2022-11-08T10:27:59.196Z,100414.34
2022-11-08T10:30:36.463Z,100432.06
2022-11-08T10:33:42.229Z,100425.66
2022-11-08T10:36:47.731Z,100436.69
2022-11-08T10:39:23.214Z,100442.66
2022-11-08T10:42:24.276Z,100442.59
2022-11-08T10:44:51.429Z,100444.25
2022-11-08T10:47:33.186Z,100451.19
2022-11-08T10:50:03.897Z,100443.88
2022-11-08T10:52:59.873Z,100447.16
2022-11-08T10:55:38.496Z,100448.03
2022-11-08T10:58:42.928Z,100456.78
2022-11-08T11:01:17.382Z,100453.34
2022-11-08T11:03:46.863Z,100449.00
2022-11-08T11:06:32.940Z,100437.38
2022-11-08T11:09:32.851Z,100438.13
2022-11-08T11:12:07.948Z,100439.91
2022-11-08T11:14:37.073Z,100435.38
2022-11-08T11:17:15.464Z,100431.41
2022-11-08T11:19:53.513Z,100434.59
2022-11-08T11:22:35.659Z,100405.81
2022-11-08T11:25:15.360Z,100423.06
2022-11-08T11:27:44.134Z,100413.22
2022-11-08T11:30:33.249Z,100398.84
2022-11-08T11:33:13.545Z,100399.53
2022-11-08T11:36:16.708Z,100395.16
2022-11-08T11:38:57.916Z,100385.81
2022-11-08T11:41:51.113Z,100372.53
2022-11-08T11:45:02.522Z,100370.50
2022-11-08T11:47:40.237Z,100365.63
2022-11-08T11:50:24.054Z,100376.78
2022-11-08T11:52:51.204Z,100386.44
2022-11-08T11:55:18.675Z,100387.38
2022-11-08T11:57:55.804Z,100382.28
2022-11-08T12:00:23.016Z,100380.06
2022-11-08T12:03:55.530Z,100384.06
2022-11-08T12:06:41.377Z,100371.19
2022-11-08T12:09:41.361Z,100366.53
2022-11-08T12:13:04.669Z,100365.28
2022-11-08T12:15:48.815Z,100360.78
2022-11-08T12:18:41.484Z,100363.56
2022-11-08T12:21:43.381Z,100362.16
2022-11-08T12:24:37.465Z,100367.81
2022-11-08T12:27:39.054Z,100372.50
2022-11-08T12:30:25.311Z,100384.97
2022-11-08T12:33:20.816Z,100375.31
2022-11-08T12:36:10.782Z,100375.31
2022-11-08T12:38:58.126Z,100359.25
2022-11-08T12:41:39.305Z,100357.78
2022-11-08T12:44:50.850Z,100349.19
2022-11-08T12:48:22.610Z,100343.78
2022-11-08T12:51:28.750Z,100339.41
2022-11-08T12:54:29.116Z,100335.44
2022-11-08T12:57:02.466Z,100343.06
2022-11-08T13:00:06.095Z,100338.81
2022-11-08T13:02:40.331Z,100336.47
2022-11-08T13:05:35.661Z,100340.69
2022-11-08T13:08:30.234Z,100341.03
2022-11-08T13:11:06.312Z,100328.84
2022-11-08T13:13:53.537Z,100324.50
2022-11-08T13:16:29.403Z,100330.94
2022-11-08T13:19:10.838Z,100318.81
2022-11-08T13:21:42.355Z,100327.69
2022-11-08T13:24:38.364Z,100318.75
2022-11-08T13:27:34.654Z,100329.34
2022-11-08T13:30:32.601Z,100337.31
2022-11-08T13:33:08.068Z,100337.34
2022-11-08T13:36:05.394Z,100337.88
2022-11-08T13:39:28.273Z,100338.63
2022-11-08T13:42:17.994Z,100337.00
2022-11-08T13:44:59.473Z,100341.53
2022-11-08T13:47:37.471Z,100335.50
2022-11-08T13:50:29.769Z,100336.69
2022-11-08T13:53:21.900Z,100336.94
2022-11-08T13:56:06.977Z,100334.78
2022-11-08T13:58:45.117Z,100322.69
2022-11-08T14:01:21.386Z,100343.28
2022-11-08T14:03:48.448Z,100326.44
2022-11-08T14:06:35.974Z,100326.56
2022-11-08T14:09:35.543Z,100323.25
2022-11-08T14:12:29.280Z,100319.84
2022-11-08T14:15:07.466Z,100308.34
2022-11-08T14:17:55.667Z,100310.66
2022-11-08T14:20:39.722Z,100310.75
2022-11-08T14:23:18.831Z,100299.44
2022-11-08T14:26:04.105Z,100313.19
2022-11-08T14:28:42.312Z,100313.56
2022-11-08T14:31:36.606Z,100303.91
2022-11-08T14:34:10.959Z,100315.41
2022-11-08T14:36:38.056Z,100313.63
2022-11-08T14:39:14.322Z,100321.59
2022-11-08T14:41:52.142Z,100304.06
2022-11-08T14:44:20.010Z,100309.56
2022-11-08T14:46:52.018Z,100310.59
2022-11-08T14:49:37.961Z,100302.75
2022-11-08T14:52:32.884Z,100313.38
2022-11-08T14:55:09.318Z,100307.28
2022-11-08T14:57:41.750Z,100315.31
2022-11-08T15:00:21.666Z,100299.56
2022-11-08T15:03:03.380Z,100310.38
2022-11-08T15:05:41.824Z,100301.75
2022-11-08T15:08:32.536Z,100298.47
2022-11-08T15:11:10.940Z,100303.94
2022-11-08T15:13:48.499Z,100309.41
2022-11-08T15:16:18.371Z,100291.94
2022-11-08T15:18:45.763Z,100302.72
2022-11-08T15:21:13.582Z,100293.06
2022-11-08T15:23:47.093Z,100296.81
2022-11-08T15:26:36.604Z,100290.75
2022-11-08T15:29:12.737Z,100288.34
2022-11-08T15:31:47.617Z,100280.50
2022-11-08T15:34:53.073Z,100277.06
2022-11-08T15:37:43.827Z,100267.53
2022-11-08T15:40:24.609Z,100267.72
2022-11-08T15:42:52.313Z,100266.19
2022-11-08T15:45:20.600Z,100267.22
2022-11-08T15:47:49.529Z,100263.03
2022-11-08T15:50:24.899Z,100264.91
2022-11-08T15:52:58.669Z,100258.06
2022-11-08T15:56:01.563Z,100253.91
2022-11-08T15:58:43.146Z,100257.69
2022-11-08T16:01:21.156Z,100257.94
2022-11-08T16:03:48.613Z,100255.44
2022-11-08T16:06:16.706Z,100251.28
2022-11-08T16:08:43.924Z,100255.00
2022-11-08T16:11:23.710Z,100254.31
2022-11-08T16:13:52.057Z,100256.19
2022-11-08T16:16:19.300Z,100244.03
2022-11-08T16:18:49.519Z,100242.41
2022-11-08T16:21:16.621Z,100248.66
2022-11-08T16:23:43.758Z,100252.34
2022-11-08T16:26:17.395Z,100247.97
2022-11-08T16:28:45.019Z,100247.19
2022-11-08T16:31:15.945Z,100239.25
2022-11-08T16:33:46.705Z,100253.47
2022-11-08T16:36:21.698Z,100258.81
2022-11-08T16:38:57.574Z,100266.84
2022-11-08T16:41:26.176Z,100273.09
2022-11-08T16:43:53.795Z,100271.41
2022-11-08T16:46:23.009Z,100268.00
2022-11-08T16:48:57.192Z,100275.19
2022-11-08T16:51:28.180Z,100273.53
2022-11-08T16:53:55.267Z,100274.44
2022-11-08T16:56:22.519Z,100272.75
2022-11-08T16:58:49.920Z,100274.69
2022-11-08T17:01:23.292Z,100270.31
2022-11-08T17:03:50.473Z,100266.84
2022-11-08T17:06:20.615Z,100273.09
2022-11-08T17:08:48.348Z,100272.22
2022-11-08T17:11:22.769Z,100269.63
2022-11-08T17:13:50.813Z,100266.97
2022-11-08T17:16:18.878Z,100267.88
2022-11-08T17:18:51.270Z,100274.09
2022-11-08T17:24:07.123Z,100273.19
2022-11-08T17:26:34.243Z,100273.13
2022-11-08T17:29:01.250Z,100259.84
2022-11-08T17:31:28.436Z,100265.16
2022-11-08T17:33:56.014Z,100254.56
2022-11-08T17:36:23.779Z,100267.75
2022-11-08T17:38:50.935Z,100257.16
2022-11-08T17:41:18.823Z,100265.09
2022-11-08T17:43:46.046Z,100266.84
2022-11-08T17:46:13.498Z,100267.75
2022-11-08T17:48:40.839Z,100281.84
2022-11-08T17:51:19.037Z,100271.22
2022-11-08T17:53:46.117Z,100267.66
2022-11-08T17:56:13.206Z,100261.50
2022-11-08T17:58:41.063Z,100269.44
2022-11-08T18:01:08.413Z,100265.88
2022-11-08T18:03:37.781Z,100260.59
2022-11-08T18:06:11.429Z,100257.94
2022-11-08T18:08:39.378Z,100255.28
2022-11-08T18:11:07.011Z,100262.38
2022-11-08T18:13:35.328Z,100262.34
2022-11-08T18:16:17.777Z,100259.72
2022-11-08T18:18:46.526Z,100272.06
2022-11-08T18:21:15.151Z,100264.13
2022-11-08T18:23:44.835Z,100270.28
2022-11-08T18:26:16.436Z,100268.53
2022-11-08T18:28:45.047Z,100281.78
2022-11-08T18:31:15.957Z,100280.91
2022-11-08T18:33:44.225Z,100278.25
2022-11-08T18:36:16.398Z,100279.13
2022-11-08T18:38:47.022Z,100284.50
2022-11-08T18:41:28.438Z,100273.09
2022-11-08T18:43:57.811Z,100286.34
2022-11-08T18:46:28.344Z,100274.91
2022-11-08T18:48:55.553Z,100276.66
2022-11-08T18:51:23.672Z,100283.69
2022-11-08T18:53:52.645Z,100274.81
2022-11-08T18:56:23.675Z,100276.66
2022-11-08T18:58:51.465Z,100285.47
2022-11-08T19:01:19.190Z,100275.75
2022-11-08T19:03:46.925Z,100273.91
2022-11-08T19:06:14.183Z,100274.78
2022-11-08T19:08:41.277Z,100274.78
2022-11-08T19:11:11.946Z,100278.34
2022-11-08T19:13:40.566Z,100268.63
2022-11-08T19:16:15.565Z,100276.56
2022-11-08T19:18:44.289Z,100267.75
2022-11-08T19:21:24.820Z,100276.53
2022-11-08T19:23:56.194Z,100280.84
2022-11-08T19:26:28.097Z,100273.69
2022-11-08T19:28:55.320Z,100271.84
2022-11-08T19:31:25.122Z,100258.47
2022-11-08T19:33:54.348Z,100270.72
2022-11-08T19:36:25.364Z,100274.19
2022-11-08T19:38:54.747Z,100278.53
2022-11-08T19:41:24.366Z,100267.13
2022-11-08T19:43:52.213Z,100271.50
2022-11-08T19:46:26.138Z,100269.81
2022-11-08T19:48:53.523Z,100275.94
2022-11-08T19:51:27.099Z,100271.47
2022-11-08T19:54:05.071Z,100287.28
2022-11-08T19:57:02.388Z,100280.22
2022-11-08T19:59:20.260Z,100279.34
2022-11-08T20:01:47.496Z,100279.34
2022-11-08T20:04:15.864Z,100282.00
2022-11-08T20:06:43.278Z,100286.53
2022-11-08T20:09:11.782Z,100275.97
2022-11-08T20:11:41.075Z,100289.13
2022-11-08T20:14:17.735Z,100280.31
2022-11-08T20:16:53.047Z,100280.25
2022-11-08T20:19:21.235Z,100285.50
2022-11-08T20:21:49.359Z,100288.13
2022-11-08T20:24:16.803Z,100284.56
2022-11-08T20:26:44.402Z,100292.41
2022-11-08T20:29:12.141Z,100295.94
2022-11-08T20:31:42.328Z,100287.16
2022-11-08T20:34:13.061Z,100294.25
2022-11-08T20:36:41.662Z,100285.38
2022-11-08T20:39:10.373Z,100292.41
2022-11-08T20:41:39.088Z,100294.19
2022-11-08T20:44:08.590Z,100289.75
2022-11-08T20:46:37.200Z,100294.16
2022-11-08T20:49:05.761Z,100287.06
2022-11-08T20:51:33.426Z,100287.97
2022-11-08T20:54:01.256Z,100287.97
2022-11-08T20:56:29.323Z,100292.41
2022-11-08T20:58:57.140Z,100303.00
2022-11-08T21:01:28.118Z,100296.97
2022-11-08T21:03:56.085Z,100299.69
2022-11-08T21:06:28.482Z,100308.59
2022-11-08T21:09:01.785Z,100314.91
2022-11-08T21:11:30.836Z,100321.13
2022-11-08T21:13:58.217Z,100325.63
2022-11-08T21:16:42.696Z,100318.66
2022-11-08T21:19:12.463Z,100332.84
2022-11-08T21:21:39.493Z,100339.09
2022-11-08T21:24:07.435Z,100339.97
2022-11-08T21:26:36.549Z,100342.66
2022-11-08T21:29:08.599Z,100341.03
2022-11-08T21:31:35.624Z,100342.88
2022-11-08T21:34:02.646Z,100342.91
2022-11-08T21:36:29.710Z,100335.00
2022-11-08T21:38:59.810Z,100336.81
2022-11-08T21:41:26.943Z,100344.84
2022-11-08T21:43:53.993Z,100340.47
2022-11-08T21:46:26.703Z,100343.19
2022-11-08T21:48:59.536Z,100341.47
2022-11-08T21:51:29.440Z,100339.78
2022-11-08T21:53:58.937Z,100345.06
2022-11-08T21:56:30.975Z,100354.00
2022-11-08T21:58:58.263Z,100353.16
2022-11-08T22:01:29.872Z,100358.47
2022-11-08T22:04:01.174Z,100347.09
2022-11-08T22:06:29.271Z,100342.81
2022-11-08T22:08:56.466Z,100344.59
2022-11-08T22:11:24.033Z,100340.25
2022-11-08T22:13:51.405Z,100349.13
2022-11-08T22:16:18.668Z,100350.94
2022-11-08T22:21:41.281Z,100336.13
2022-11-08T22:24:20.195Z,100340.53
2022-11-08T22:26:49.161Z,100343.22
2022-11-08T22:29:16.912Z,100343.22
2022-11-08T22:31:44.903Z,100340.63
2022-11-08T22:34:12.648Z,100343.22
2022-11-08T22:36:44.822Z,100339.75
2022-11-08T22:39:18.693Z,100342.38
2022-11-08T22:41:48.065Z,100340.66
2022-11-08T22:44:16.040Z,100338.88
2022-11-08T22:46:44.818Z,100349.47
2022-11-08T22:49:12.982Z,100352.09
2022-11-08T22:51:41.075Z,100345.94
2022-11-08T22:54:08.988Z,100344.16
2022-11-08T22:56:36.783Z,100343.31
2022-11-08T22:59:04.751Z,100339.78
2022-11-08T23:01:32.275Z,100338.03
2022-11-08T23:03:59.319Z,100338.97
2022-11-08T23:06:26.515Z,100344.25
2022-11-08T23:08:53.611Z,100344.28
2022-11-08T23:11:39.469Z,100342.56
2022-11-08T23:14:25.166Z,100355.78
2022-11-08T23:16:52.151Z,100337.31
2022-11-08T23:19:41.352Z,100343.50
2022-11-08T23:22:34.662Z,100342.63
2022-11-08T23:25:01.784Z,100354.94
2022-11-08T23:27:48.021Z,100344.41
2022-11-08T23:30:36.227Z,100340.81
2022-11-08T23:33:08.158Z,100328.53
2022-11-08T23:35:35.567Z,100329.41
2022-11-08T23:38:02.693Z,100332.91
2022-11-08T23:40:48.448Z,100335.56
2022-11-08T23:43:37.834Z,100329.41
2022-11-08T23:46:11.730Z,100337.34
2022-11-08T23:48:40.433Z,100336.47
2022-11-08T23:51:08.360Z,100347.09
2022-11-08T23:53:37.260Z,100349.75
2022-11-08T23:56:05.020Z,100345.34
2022-11-08T23:58:32.958Z,100349.78
